sensor_id;sensor_type;location;lat;lon;timestamp;P1;durP1;ratioP1;P2;durP2;ratioP2
21587;SDS011;10956;48.878;13.316;2022-09-12T00:00:47;3.30;;;3.10;;
21587;SDS011;10956;48.878;13.316;2022-09-12T00:03:13;3.30;;;3.07;;
21587;SDS011;10956;48.878;13.316;2022-09-12T00:05:45;3.97;;;3.60;;
21587;SDS011;10956;48.878;13.316;2022-09-12T00:08:11;3.60;;;3.30;;
21587;SDS011;10956;48.878;13.316;2022-09-12T00:10:38;3.63;;;3.30;;
21587;SDS011;10956;48.878;13.316;2022-09-12T00:13:06;3.33;;;3.03;;
21587;SDS011;10956;48.878;13.316;2022-09-12T00:15:36;3.13;;;2.93;;
21587;SDS011;10956;48.878;13.316;2022-09-12T00:18:02;3.33;;;3.03;;
21587;SDS011;10956;48.878;13.316;2022-09-12T00:20:28;3.17;;;2.97;;
21587;SDS011;10956;48.878;13.316;2022-09-12T00:22:53;3.50;;;3.20;;
21587;SDS011;10956;48.878;13.316;2022-09-12T00:25:18;3.77;;;3.47;;
21587;SDS011;10956;48.878;13.316;2022-09-12T00:27:44;3.63;;;3.33;;
21587;SDS011;10956;48.878;13.316;2022-09-12T00:30:09;3.73;;;3.43;;
21587;SDS011;10956;48.878;13.316;2022-09-12T00:32:35;3.60;;;3.30;;
21587;SDS011;10956;48.878;13.316;2022-09-12T00:35:01;4.13;;;3.73;;
21587;SDS011;10956;48.878;13.316;2022-09-12T00:37:26;4.00;;;3.70;;
21587;SDS011;10956;48.878;13.316;2022-09-12T00:39:52;3.50;;;3.20;;
21587;SDS011;10956;48.878;13.316;2022-09-12T00:42:17;3.20;;;2.90;;
21587;SDS011;10956;48.878;13.316;2022-09-12T00:44:44;3.43;;;3.13;;
21587;SDS011;10956;48.878;13.316;2022-09-12T00:47:13;3.00;;;2.80;;
21587;SDS011;10956;48.878;13.316;2022-09-12T00:57:52;3.70;;;3.40;;
21587;SDS011;10956;48.878;13.316;2022-09-12T01:00:22;3.97;;;3.67;;
21587;SDS011;10956;48.878;13.316;2022-09-12T01:02:50;3.50;;;3.20;;
21587;SDS011;10956;48.878;13.316;2022-09-12T01:05:22;3.90;;;3.30;;
21587;SDS011;10956;48.878;13.316;2022-09-12T01:07:50;3.40;;;3.10;;
21587;SDS011;10956;48.878;13.316;2022-09-12T01:10:17;3.93;;;3.43;;
21587;SDS011;10956;48.878;13.316;2022-09-12T01:12:43;3.77;;;3.43;;
21587;SDS011;10956;48.878;13.316;2022-09-12T01:15:09;3.57;;;3.27;;
21587;SDS011;10956;48.878;13.316;2022-09-12T01:34:54;3.53;;;3.23;;
21587;SDS011;10956;48.878;13.316;2022-09-12T01:46:09;2.53;;;2.33;;
21587;SDS011;10956;48.878;13.316;2022-09-12T01:48:35;2.93;;;2.73;;
21587;SDS011;10956;48.878;13.316;2022-09-12T01:53:47;3.27;;;2.97;;
21587;SDS011;10956;48.878;13.316;2022-09-12T01:56:23;3.27;;;3.03;;
21587;SDS011;10956;48.878;13.316;2022-09-12T01:58:53;3.67;;;3.37;;
21587;SDS011;10956;48.878;13.316;2022-09-12T02:01:27;3.70;;;3.40;;
21587;SDS011;10956;48.878;13.316;2022-09-12T02:06:54;4.00;;;3.70;;
21587;SDS011;10956;48.878;13.316;2022-09-12T02:09:35;3.80;;;3.50;;
21587;SDS011;10956;48.878;13.316;2022-09-12T02:12:07;3.60;;;3.30;;
21587;SDS011;10956;48.878;13.316;2022-09-12T02:14:37;3.77;;;3.47;;
21587;SDS011;10956;48.878;13.316;2022-09-12T02:17:10;3.67;;;3.37;;
21587;SDS011;10956;48.878;13.316;2022-09-12T02:19:44;2.93;;;2.73;;
21587;SDS011;10956;48.878;13.316;2022-09-12T02:22:14;3.70;;;3.40;;
21587;SDS011;10956;48.878;13.316;2022-09-12T02:24:44;3.40;;;3.10;;
21587;SDS011;10956;48.878;13.316;2022-09-12T02:27:58;3.40;;;3.10;;
21587;SDS011;10956;48.878;13.316;2022-09-12T02:30:13;3.47;;;3.17;;
21587;SDS011;10956;48.878;13.316;2022-09-12T02:32:46;3.77;;;3.40;;
21587;SDS011;10956;48.878;13.316;2022-09-12T02:40:23;3.80;;;3.37;;
21587;SDS011;10956;48.878;13.316;2022-09-12T02:42:49;9.33;;;3.73;;
21587;SDS011;10956;48.878;13.316;2022-09-12T02:45:15;9.33;;;4.20;;
21587;SDS011;10956;48.878;13.316;2022-09-12T02:47:46;4.87;;;3.70;;
21587;SDS011;10956;48.878;13.316;2022-09-12T02:50:14;3.27;;;2.97;;
21587;SDS011;10956;48.878;13.316;2022-09-12T02:52:41;2.80;;;2.60;;
21587;SDS011;10956;48.878;13.316;2022-09-12T02:55:07;2.60;;;2.40;;
21587;SDS011;10956;48.878;13.316;2022-09-12T02:57:35;3.10;;;2.80;;
21587;SDS011;10956;48.878;13.316;2022-09-12T03:00:01;2.60;;;2.40;;
21587;SDS011;10956;48.878;13.316;2022-09-12T03:05:33;2.67;;;2.47;;
21587;SDS011;10956;48.878;13.316;2022-09-12T03:21:21;2.17;;;2.07;;
21587;SDS011;10956;48.878;13.316;2022-09-12T03:26:34;1.67;;;1.57;;
21587;SDS011;10956;48.878;13.316;2022-09-12T03:29:02;1.70;;;1.60;;
21587;SDS011;10956;48.878;13.316;2022-09-12T03:31:30;1.87;;;1.77;;
21587;SDS011;10956;48.878;13.316;2022-09-12T03:33:55;1.87;;;1.77;;
21587;SDS011;10956;48.878;13.316;2022-09-12T03:36:24;2.00;;;1.90;;
21587;SDS011;10956;48.878;13.316;2022-09-12T03:38:51;2.00;;;1.90;;
21587;SDS011;10956;48.878;13.316;2022-09-12T03:41:16;2.10;;;2.00;;
21587;SDS011;10956;48.878;13.316;2022-09-12T03:43:42;1.70;;;1.60;;
21587;SDS011;10956;48.878;13.316;2022-09-12T03:46:07;1.80;;;1.70;;
21587;SDS011;10956;48.878;13.316;2022-09-12T03:48:33;1.73;;;1.63;;
21587;SDS011;10956;48.878;13.316;2022-09-12T03:50:59;2.00;;;1.90;;
21587;SDS011;10956;48.878;13.316;2022-09-12T03:53:25;2.00;;;1.90;;
21587;SDS011;10956;48.878;13.316;2022-09-12T03:55:51;2.13;;;2.03;;
21587;SDS011;10956;48.878;13.316;2022-09-12T03:58:16;1.80;;;1.70;;
21587;SDS011;10956;48.878;13.316;2022-09-12T04:00:42;1.70;;;1.60;;
21587;SDS011;10956;48.878;13.316;2022-09-12T04:03:08;1.83;;;1.73;;
21587;SDS011;10956;48.878;13.316;2022-09-12T04:05:34;1.87;;;1.77;;
21587;SDS011;10956;48.878;13.316;2022-09-12T04:08:00;1.73;;;1.63;;
21587;SDS011;10956;48.878;13.316;2022-09-12T04:10:26;1.70;;;1.60;;
21587;SDS011;10956;48.878;13.316;2022-09-12T04:12:51;1.80;;;1.70;;
21587;SDS011;10956;48.878;13.316;2022-09-12T04:15:17;2.07;;;1.97;;
21587;SDS011;10956;48.878;13.316;2022-09-12T04:17:43;1.80;;;1.70;;
21587;SDS011;10956;48.878;13.316;2022-09-12T04:20:08;1.70;;;1.60;;
21587;SDS011;10956;48.878;13.316;2022-09-12T04:22:34;2.03;;;1.93;;
21587;SDS011;10956;48.878;13.316;2022-09-12T04:24:59;2.00;;;1.90;;
21587;SDS011;10956;48.878;13.316;2022-09-12T04:27:24;1.93;;;1.83;;
21587;SDS011;10956;48.878;13.316;2022-09-12T04:29:50;1.80;;;1.70;;
21587;SDS011;10956;48.878;13.316;2022-09-12T04:32:15;2.17;;;2.07;;
21587;SDS011;10956;48.878;13.316;2022-09-12T04:34:42;2.50;;;2.30;;
21587;SDS011;10956;48.878;13.316;2022-09-12T04:37:08;2.10;;;2.00;;
21587;SDS011;10956;48.878;13.316;2022-09-12T04:39:35;2.10;;;2.00;;
21587;SDS011;10956;48.878;13.316;2022-09-12T04:42:01;1.90;;;1.80;;
21587;SDS011;10956;48.878;13.316;2022-09-12T04:44:28;2.03;;;1.93;;
21587;SDS011;10956;48.878;13.316;2022-09-12T04:46:53;1.77;;;1.67;;
21587;SDS011;10956;48.878;13.316;2022-09-12T04:49:19;2.10;;;2.00;;
21587;SDS011;10956;48.878;13.316;2022-09-12T04:51:45;1.90;;;1.80;;
21587;SDS011;10956;48.878;13.316;2022-09-12T04:54:12;2.33;;;2.13;;
21587;SDS011;10956;48.878;13.316;2022-09-12T04:56:41;2.20;;;2.10;;
21587;SDS011;10956;48.878;13.316;2022-09-12T04:59:09;1.90;;;1.80;;
21587;SDS011;10956;48.878;13.316;2022-09-12T05:01:37;2.07;;;1.97;;
21587;SDS011;10956;48.878;13.316;2022-09-12T05:04:03;2.20;;;2.10;;
21587;SDS011;10956;48.878;13.316;2022-09-12T05:06:33;2.50;;;2.30;;
21587;SDS011;10956;48.878;13.316;2022-09-12T05:09:00;2.20;;;2.00;;
21587;SDS011;10956;48.878;13.316;2022-09-12T05:11:28;2.30;;;2.10;;
21587;SDS011;10956;48.878;13.316;2022-09-12T05:13:55;2.30;;;2.13;;
21587;SDS011;10956;48.878;13.316;2022-09-12T05:16:21;2.20;;;2.10;;
21587;SDS011;10956;48.878;13.316;2022-09-12T05:18:48;2.17;;;2.03;;
21587;SDS011;10956;48.878;13.316;2022-09-12T05:21:15;2.60;;;2.40;;
21587;SDS011;10956;48.878;13.316;2022-09-12T05:23:42;2.30;;;2.10;;
21587;SDS011;10956;48.878;13.316;2022-09-12T05:26:10;2.07;;;1.97;;
21587;SDS011;10956;48.878;13.316;2022-09-12T05:28:37;2.47;;;2.27;;
21587;SDS011;10956;48.878;13.316;2022-09-12T05:31:04;2.50;;;2.30;;
21587;SDS011;10956;48.878;13.316;2022-09-12T05:33:32;2.43;;;2.23;;
21587;SDS011;10956;48.878;13.316;2022-09-12T05:35:58;2.47;;;2.27;;
21587;SDS011;10956;48.878;13.316;2022-09-12T05:38:24;2.70;;;2.50;;
21587;SDS011;10956;48.878;13.316;2022-09-12T05:40:50;2.40;;;2.20;;
21587;SDS011;10956;48.878;13.316;2022-09-12T05:43:16;2.70;;;2.50;;
21587;SDS011;10956;48.878;13.316;2022-09-12T05:45:42;2.27;;;2.07;;
21587;SDS011;10956;48.878;13.316;2022-09-12T05:48:07;2.50;;;2.30;;
21587;SDS011;10956;48.878;13.316;2022-09-12T05:50:33;2.83;;;2.63;;
21587;SDS011;10956;48.878;13.316;2022-09-12T05:52:58;2.80;;;2.50;;
21587;SDS011;10956;48.878;13.316;2022-09-12T05:55:23;2.67;;;2.47;;
21587;SDS011;10956;48.878;13.316;2022-09-12T05:57:49;2.67;;;2.30;;
21587;SDS011;10956;48.878;13.316;2022-09-12T06:00:15;2.60;;;2.40;;
21587;SDS011;10956;48.878;13.316;2022-09-12T06:02:41;2.90;;;2.70;;
21587;SDS011;10956;48.878;13.316;2022-09-12T06:05:07;7.97;;;7.27;;
21587;SDS011;10956;48.878;13.316;2022-09-12T06:07:33;6.37;;;5.87;;
21587;SDS011;10956;48.878;13.316;2022-09-12T06:09:59;7.30;;;6.63;;
21587;SDS011;10956;48.878;13.316;2022-09-12T06:12:25;9.20;;;8.40;;
21587;SDS011;10956;48.878;13.316;2022-09-12T06:14:53;9.27;;;8.47;;
21587;SDS011;10956;48.878;13.316;2022-09-12T06:17:18;5.70;;;5.20;;
21587;SDS011;10956;48.878;13.316;2022-09-12T06:19:43;5.27;;;4.80;;
21587;SDS011;10956;48.878;13.316;2022-09-12T06:22:09;6.30;;;5.77;;
21587;SDS011;10956;48.878;13.316;2022-09-12T06:24:35;4.50;;;4.10;;
21587;SDS011;10956;48.878;13.316;2022-09-12T06:27:00;4.00;;;3.60;;
21587;SDS011;10956;48.878;13.316;2022-09-12T06:29:26;15.57;;;11.23;;
21587;SDS011;10956;48.878;13.316;2022-09-12T06:31:52;31.77;;;22.90;;
21587;SDS011;10956;48.878;13.316;2022-09-12T06:34:18;19.03;;;14.00;;
21587;SDS011;10956;48.878;13.316;2022-09-12T06:36:47;10.50;;;8.30;;
21587;SDS011;10956;48.878;13.316;2022-09-12T06:39:17;10.30;;;9.30;;
21587;SDS011;10956;48.878;13.316;2022-09-12T06:41:44;10.40;;;8.70;;
21587;SDS011;10956;48.878;13.316;2022-09-12T06:44:17;12.13;;;10.03;;
21587;SDS011;10956;48.878;13.316;2022-09-12T06:46:44;6.33;;;5.67;;
21587;SDS011;10956;48.878;13.316;2022-09-12T06:49:09;32.67;;;25.13;;
21587;SDS011;10956;48.878;13.316;2022-09-12T06:51:35;39.97;;;31.90;;
21587;SDS011;10956;48.878;13.316;2022-09-12T06:54:01;17.67;;;14.97;;
21587;SDS011;10956;48.878;13.316;2022-09-12T06:56:27;7.87;;;6.87;;
21587;SDS011;10956;48.878;13.316;2022-09-12T06:58:56;11.47;;;10.27;;
21587;SDS011;10956;48.878;13.316;2022-09-12T07:01:24;15.17;;;13.67;;
21587;SDS011;10956;48.878;13.316;2022-09-12T07:04:04;12.70;;;11.50;;
21587;SDS011;10956;48.878;13.316;2022-09-12T07:06:31;11.27;;;10.17;;
21587;SDS011;10956;48.878;13.316;2022-09-12T07:09:02;4.90;;;4.50;;
21587;SDS011;10956;48.878;13.316;2022-09-12T07:11:29;35.43;;;25.87;;
21587;SDS011;10956;48.878;13.316;2022-09-12T07:13:58;57.97;;;43.37;;
21587;SDS011;10956;48.878;13.316;2022-09-12T07:16:25;19.00;;;15.37;;
21587;SDS011;10956;48.878;13.316;2022-09-12T07:18:53;9.27;;;8.00;;
21587;SDS011;10956;48.878;13.316;2022-09-12T07:21:20;5.73;;;5.17;;
21587;SDS011;10956;48.878;13.316;2022-09-12T07:23:46;5.47;;;4.60;;
21587;SDS011;10956;48.878;13.316;2022-09-12T07:26:12;51.20;;;34.37;;
21587;SDS011;10956;48.878;13.316;2022-09-12T07:28:38;46.90;;;30.90;;
21587;SDS011;10956;48.878;13.316;2022-09-12T07:31:14;27.03;;;19.30;;
21587;SDS011;10956;48.878;13.316;2022-09-12T07:33:41;15.70;;;13.77;;
21587;SDS011;10956;48.878;13.316;2022-09-12T07:36:09;11.07;;;9.97;;
21587;SDS011;10956;48.878;13.316;2022-09-12T07:38:39;6.43;;;5.83;;
21587;SDS011;10956;48.878;13.316;2022-09-12T07:41:38;4.93;;;4.53;;
21587;SDS011;10956;48.878;13.316;2022-09-12T07:44:00;4.10;;;3.80;;
21587;SDS011;10956;48.878;13.316;2022-09-12T07:46:27;3.60;;;3.30;;
21587;SDS011;10956;48.878;13.316;2022-09-12T07:48:55;3.30;;;3.00;;
21587;SDS011;10956;48.878;13.316;2022-09-12T07:51:23;3.43;;;3.13;;
21587;SDS011;10956;48.878;13.316;2022-09-12T07:53:50;3.10;;;2.90;;
21587;SDS011;10956;48.878;13.316;2022-09-12T07:56:18;3.77;;;3.47;;
21587;SDS011;10956;48.878;13.316;2022-09-12T07:58:45;4.57;;;4.17;;
21587;SDS011;10956;48.878;13.316;2022-09-12T08:01:17;4.20;;;3.90;;
21587;SDS011;10956;48.878;13.316;2022-09-12T08:03:48;4.53;;;4.07;;
21587;SDS011;10956;48.878;13.316;2022-09-12T08:06:20;4.37;;;3.97;;
21587;SDS011;10956;48.878;13.316;2022-09-12T08:08:54;4.13;;;3.83;;
21587;SDS011;10956;48.878;13.316;2022-09-12T08:11:24;6.50;;;5.90;;
21587;SDS011;10956;48.878;13.316;2022-09-12T08:13:52;4.87;;;4.47;;
21587;SDS011;10956;48.878;13.316;2022-09-12T08:16:23;4.20;;;3.80;;
21587;SDS011;10956;48.878;13.316;2022-09-12T08:18:50;4.43;;;4.03;;
21587;SDS011;10956;48.878;13.316;2022-09-12T08:21:17;4.23;;;3.93;;
21587;SDS011;10956;48.878;13.316;2022-09-12T08:23:55;4.60;;;4.20;;
21587;SDS011;10956;48.878;13.316;2022-09-12T08:26:27;4.03;;;3.73;;
21587;SDS011;10956;48.878;13.316;2022-09-12T08:28:54;4.63;;;4.23;;
21587;SDS011;10956;48.878;13.316;2022-09-12T08:31:30;4.20;;;3.90;;
21587;SDS011;10956;48.878;13.316;2022-09-12T08:34:00;4.30;;;3.90;;
21587;SDS011;10956;48.878;13.316;2022-09-12T08:36:28;5.00;;;4.60;;
21587;SDS011;10956;48.878;13.316;2022-09-12T08:38:57;4.17;;;3.87;;
21587;SDS011;10956;48.878;13.316;2022-09-12T08:41:41;3.90;;;3.60;;
21587;SDS011;10956;48.878;13.316;2022-09-12T08:44:15;4.27;;;3.87;;
21587;SDS011;10956;48.878;13.316;2022-09-12T08:49:15;4.33;;;3.93;;
21587;SDS011;10956;48.878;13.316;2022-09-12T08:51:55;4.47;;;4.07;;
21587;SDS011;10956;48.878;13.316;2022-09-12T08:54:24;3.90;;;3.60;;
21587;SDS011;10956;48.878;13.316;2022-09-12T08:56:57;3.63;;;3.33;;
21587;SDS011;10956;48.878;13.316;2022-09-12T08:59:34;3.80;;;3.20;;
21587;SDS011;10956;48.878;13.316;2022-09-12T09:02:08;3.50;;;3.20;;
21587;SDS011;10956;48.878;13.316;2022-09-12T09:07:27;3.60;;;3.30;;
21587;SDS011;10956;48.878;13.316;2022-09-12T09:10:20;3.10;;;2.80;;
21587;SDS011;10956;48.878;13.316;2022-09-12T09:15:24;3.80;;;3.50;;
21587;SDS011;10956;48.878;13.316;2022-09-12T09:17:56;3.67;;;3.37;;
21587;SDS011;10956;48.878;13.316;2022-09-12T09:20:35;2.97;;;2.77;;
21587;SDS011;10956;48.878;13.316;2022-09-12T09:23:22;2.60;;;2.40;;
21587;SDS011;10956;48.878;13.316;2022-09-12T09:28:40;2.97;;;2.43;;
21587;SDS011;10956;48.878;13.316;2022-09-12T09:31:14;2.87;;;2.67;;
21587;SDS011;10956;48.878;13.316;2022-09-12T09:33:40;3.07;;;2.87;;
21587;SDS011;10956;48.878;13.316;2022-09-12T09:39:03;3.37;;;3.07;;
21587;SDS011;10956;48.878;13.316;2022-09-12T09:41:37;3.50;;;3.07;;
21587;SDS011;10956;48.878;13.316;2022-09-12T09:44:12;2.13;;;2.03;;
21587;SDS011;10956;48.878;13.316;2022-09-12T09:46:38;2.60;;;2.40;;
21587;SDS011;10956;48.878;13.316;2022-09-12T09:49:03;3.03;;;2.83;;
21587;SDS011;10956;48.878;13.316;2022-09-12T09:51:34;2.30;;;2.07;;
21587;SDS011;10956;48.878;13.316;2022-09-12T09:54:07;2.80;;;2.60;;
21587;SDS011;10956;48.878;13.316;2022-09-12T09:56:41;2.60;;;2.40;;
21587;SDS011;10956;48.878;13.316;2022-09-12T09:59:17;2.87;;;2.40;;
21587;SDS011;10956;48.878;13.316;2022-09-12T10:01:47;2.70;;;2.50;;
21587;SDS011;10956;48.878;13.316;2022-09-12T10:04:28;3.03;;;2.83;;
21587;SDS011;10956;48.878;13.316;2022-09-12T10:06:57;3.10;;;2.80;;
21587;SDS011;10956;48.878;13.316;2022-09-12T10:09:33;2.87;;;2.67;;
21587;SDS011;10956;48.878;13.316;2022-09-12T10:12:01;2.50;;;2.30;;
21587;SDS011;10956;48.878;13.316;2022-09-12T10:14:55;2.30;;;2.10;;
21587;SDS011;10956;48.878;13.316;2022-09-12T10:17:40;2.90;;;2.70;;
21587;SDS011;10956;48.878;13.316;2022-09-12T10:20:49;2.90;;;2.60;;
21587;SDS011;10956;48.878;13.316;2022-09-12T10:25:56;3.27;;;2.80;;
21587;SDS011;10956;48.878;13.316;2022-09-12T10:28:44;3.40;;;3.10;;
21587;SDS011;10956;48.878;13.316;2022-09-12T10:31:15;3.80;;;3.50;;
21587;SDS011;10956;48.878;13.316;2022-09-12T10:33:52;3.17;;;2.97;;
21587;SDS011;10956;48.878;13.316;2022-09-12T10:36:20;3.43;;;3.23;;
21587;SDS011;10956;48.878;13.316;2022-09-12T10:38:51;3.50;;;3.20;;
21587;SDS011;10956;48.878;13.316;2022-09-12T10:41:20;4.00;;;3.70;;
21587;SDS011;10956;48.878;13.316;2022-09-12T10:43:46;3.57;;;3.27;;
21587;SDS011;10956;48.878;13.316;2022-09-12T10:48:44;3.73;;;3.30;;
21587;SDS011;10956;48.878;13.316;2022-09-12T10:53:49;3.60;;;3.30;;
21587;SDS011;10956;48.878;13.316;2022-09-12T10:56:24;4.77;;;4.37;;
21587;SDS011;10956;48.878;13.316;2022-09-12T11:01:48;4.20;;;3.80;;
21587;SDS011;10956;48.878;13.316;2022-09-12T11:17:56;3.70;;;3.40;;
21587;SDS011;10956;48.878;13.316;2022-09-12T11:34:10;3.60;;;3.30;;
21587;SDS011;10956;48.878;13.316;2022-09-12T11:36:56;3.07;;;2.87;;
21587;SDS011;10956;48.878;13.316;2022-09-12T11:39:28;2.60;;;2.40;;
21587;SDS011;10956;48.878;13.316;2022-09-12T11:41:57;3.03;;;2.73;;
21587;SDS011;10956;48.878;13.316;2022-09-12T11:44:28;3.40;;;3.10;;
21587;SDS011;10956;48.878;13.316;2022-09-12T11:47:02;3.40;;;3.10;;
21587;SDS011;10956;48.878;13.316;2022-09-12T11:49:50;3.17;;;2.97;;
21587;SDS011;10956;48.878;13.316;2022-09-12T11:52:20;3.20;;;3.00;;
21587;SDS011;10956;48.878;13.316;2022-09-12T12:05:53;2.70;;;2.50;;
21587;SDS011;10956;48.878;13.316;2022-09-12T12:08:23;2.80;;;2.60;;
21587;SDS011;10956;48.878;13.316;2022-09-12T12:10:52;2.57;;;2.37;;
21587;SDS011;10956;48.878;13.316;2022-09-12T12:13:39;2.83;;;2.63;;
21587;SDS011;10956;48.878;13.316;2022-09-12T12:16:25;3.30;;;3.00;;
21587;SDS011;10956;48.878;13.316;2022-09-12T12:19:02;3.73;;;3.43;;
21587;SDS011;10956;48.878;13.316;2022-09-12T12:21:48;3.30;;;3.00;;
21587;SDS011;10956;48.878;13.316;2022-09-12T12:24:16;2.97;;;2.77;;
21587;SDS011;10956;48.878;13.316;2022-09-12T12:26:53;3.10;;;2.90;;
21587;SDS011;10956;48.878;13.316;2022-09-12T12:29:43;3.40;;;3.10;;
21587;SDS011;10956;48.878;13.316;2022-09-12T12:34:45;3.13;;;2.87;;
21587;SDS011;10956;48.878;13.316;2022-09-12T12:44:59;1.97;;;1.87;;
21587;SDS011;10956;48.878;13.316;2022-09-12T12:47:26;2.30;;;2.10;;
21587;SDS011;10956;48.878;13.316;2022-09-12T12:49:59;2.40;;;2.20;;
21587;SDS011;10956;48.878;13.316;2022-09-12T12:58:18;2.40;;;2.20;;
21587;SDS011;10956;48.878;13.316;2022-09-12T13:01:02;2.37;;;2.17;;
21587;SDS011;10956;48.878;13.316;2022-09-12T13:03:29;1.67;;;1.58;;
21587;SDS011;10956;48.878;13.316;2022-09-12T13:06:01;1.80;;;1.60;;
21587;SDS011;10956;48.878;13.316;2022-09-12T13:08:30;1.90;;;1.80;;
21587;SDS011;10956;48.878;13.316;2022-09-12T13:13:52;2.43;;;2.17;;
21587;SDS011;10956;48.878;13.316;2022-09-12T13:16:33;2.30;;;2.10;;
21587;SDS011;10956;48.878;13.316;2022-09-12T13:19:03;2.60;;;2.40;;
21587;SDS011;10956;48.878;13.316;2022-09-12T13:21:38;2.37;;;2.17;;
21587;SDS011;10956;48.878;13.316;2022-09-12T13:24:42;1.90;;;1.80;;
21587;SDS011;10956;48.878;13.316;2022-09-12T13:27:20;2.30;;;2.10;;
21587;SDS011;10956;48.878;13.316;2022-09-12T13:29:47;1.70;;;1.60;;
21587;SDS011;10956;48.878;13.316;2022-09-12T13:32:13;2.13;;;1.93;;
21587;SDS011;10956;48.878;13.316;2022-09-12T13:35:17;1.87;;;1.77;;
21587;SDS011;10956;48.878;13.316;2022-09-12T13:37:46;2.00;;;1.90;;
21587;SDS011;10956;48.878;13.316;2022-09-12T13:40:30;3.00;;;2.70;;
21587;SDS011;10956;48.878;13.316;2022-09-12T13:45:50;2.77;;;2.57;;
21587;SDS011;10956;48.878;13.316;2022-09-12T13:48:17;2.57;;;2.37;;
21587;SDS011;10956;48.878;13.316;2022-09-12T13:50:53;1.93;;;1.83;;
21587;SDS011;10956;48.878;13.316;2022-09-12T13:53:24;2.10;;;1.93;;
21587;SDS011;10956;48.878;13.316;2022-09-12T13:55:57;2.60;;;2.40;;
21587;SDS011;10956;48.878;13.316;2022-09-12T13:58:28;2.40;;;2.20;;
21587;SDS011;10956;48.878;13.316;2022-09-12T14:01:03;2.80;;;2.60;;
21587;SDS011;10956;48.878;13.316;2022-09-12T14:03:55;2.50;;;2.30;;
21587;SDS011;10956;48.878;13.316;2022-09-12T14:06:46;2.70;;;2.50;;
21587;SDS011;10956;48.878;13.316;2022-09-12T14:09:28;2.90;;;2.70;;
21587;SDS011;10956;48.878;13.316;2022-09-12T14:12:02;3.30;;;3.10;;
21587;SDS011;10956;48.878;13.316;2022-09-12T14:17:00;2.57;;;2.37;;
21587;SDS011;10956;48.878;13.316;2022-09-12T14:19:39;3.00;;;2.80;;
21587;SDS011;10956;48.878;13.316;2022-09-12T14:22:06;4.10;;;2.77;;
21587;SDS011;10956;48.878;13.316;2022-09-12T14:24:36;3.57;;;3.27;;
21587;SDS011;10956;48.878;13.316;2022-09-12T14:27:03;3.40;;;3.20;;
21587;SDS011;10956;48.878;13.316;2022-09-12T14:29:29;3.30;;;3.10;;
21587;SDS011;10956;48.878;13.316;2022-09-12T14:32:01;3.50;;;3.20;;
21587;SDS011;10956;48.878;13.316;2022-09-12T14:34:28;3.63;;;3.33;;
21587;SDS011;10956;48.878;13.316;2022-09-12T14:36:54;3.10;;;2.90;;
21587;SDS011;10956;48.878;13.316;2022-09-12T14:39:29;2.80;;;2.60;;
21587;SDS011;10956;48.878;13.316;2022-09-12T14:42:05;2.80;;;2.60;;
21587;SDS011;10956;48.878;13.316;2022-09-12T14:44:31;3.00;;;2.80;;
21587;SDS011;10956;48.878;13.316;2022-09-12T14:47:00;2.90;;;2.70;;
21587;SDS011;10956;48.878;13.316;2022-09-12T14:49:36;3.03;;;2.83;;
21587;SDS011;10956;48.878;13.316;2022-09-12T14:52:05;2.80;;;2.60;;
21587;SDS011;10956;48.878;13.316;2022-09-12T14:54:54;3.07;;;2.87;;
21587;SDS011;10956;48.878;13.316;2022-09-12T14:59:52;3.33;;;3.03;;
21587;SDS011;10956;48.878;13.316;2022-09-12T15:04:53;2.77;;;2.57;;
21587;SDS011;10956;48.878;13.316;2022-09-12T15:07:44;2.50;;;2.30;;
21587;SDS011;10956;48.878;13.316;2022-09-12T15:10:22;2.73;;;2.50;;
21587;SDS011;10956;48.878;13.316;2022-09-12T15:15:36;3.30;;;3.00;;
21587;SDS011;10956;48.878;13.316;2022-09-12T15:18:03;2.40;;;2.20;;
21587;SDS011;10956;48.878;13.316;2022-09-12T15:20:36;2.40;;;2.20;;
21587;SDS011;10956;48.878;13.316;2022-09-12T15:23:09;2.43;;;2.23;;
21587;SDS011;10956;48.878;13.316;2022-09-12T15:25:39;2.40;;;2.20;;
21587;SDS011;10956;48.878;13.316;2022-09-12T15:28:11;2.57;;;2.37;;
21587;SDS011;10956;48.878;13.316;2022-09-12T15:30:41;2.70;;;2.50;;
21587;SDS011;10956;48.878;13.316;2022-09-12T15:33:07;2.80;;;2.60;;
21587;SDS011;10956;48.878;13.316;2022-09-12T15:35:33;2.50;;;2.30;;
21587;SDS011;10956;48.878;13.316;2022-09-12T15:37:59;2.83;;;2.63;;
21587;SDS011;10956;48.878;13.316;2022-09-12T15:40:24;2.30;;;2.10;;
21587;SDS011;10956;48.878;13.316;2022-09-12T15:42:50;2.27;;;2.07;;
21587;SDS011;10956;48.878;13.316;2022-09-12T15:45:23;2.00;;;1.90;;
21587;SDS011;10956;48.878;13.316;2022-09-12T15:47:51;2.40;;;2.20;;
21587;SDS011;10956;48.878;13.316;2022-09-12T15:50:17;2.87;;;2.67;;
21587;SDS011;10956;48.878;13.316;2022-09-12T15:52:43;2.67;;;2.47;;
21587;SDS011;10956;48.878;13.316;2022-09-12T15:55:18;2.70;;;2.50;;
21587;SDS011;10956;48.878;13.316;2022-09-12T15:58:01;2.40;;;2.20;;
21587;SDS011;10956;48.878;13.316;2022-09-12T16:00:27;2.30;;;2.10;;
21587;SDS011;10956;48.878;13.316;2022-09-12T16:02:53;1.97;;;1.87;;
21587;SDS011;10956;48.878;13.316;2022-09-12T16:05:22;2.13;;;1.97;;
21587;SDS011;10956;48.878;13.316;2022-09-12T16:07:52;2.00;;;1.90;;
21587;SDS011;10956;48.878;13.316;2022-09-12T16:10:21;2.00;;;1.90;;
21587;SDS011;10956;48.878;13.316;2022-09-12T16:12:48;1.97;;;1.80;;
21587;SDS011;10956;48.878;13.316;2022-09-12T16:15:16;1.90;;;1.80;;
21587;SDS011;10956;48.878;13.316;2022-09-12T16:17:44;1.90;;;1.80;;
21587;SDS011;10956;48.878;13.316;2022-09-12T16:20:10;2.20;;;1.77;;
21587;SDS011;10956;48.878;13.316;2022-09-12T16:22:36;1.90;;;1.80;;
21587;SDS011;10956;48.878;13.316;2022-09-12T16:25:02;1.73;;;1.63;;
21587;SDS011;10956;48.878;13.316;2022-09-12T16:27:28;1.70;;;1.60;;
21587;SDS011;10956;48.878;13.316;2022-09-12T16:29:53;1.90;;;1.73;;
21587;SDS011;10956;48.878;13.316;2022-09-12T16:32:19;1.80;;;1.70;;
21587;SDS011;10956;48.878;13.316;2022-09-12T16:34:44;2.23;;;2.03;;
21587;SDS011;10956;48.878;13.316;2022-09-12T16:37:09;1.87;;;1.77;;
21587;SDS011;10956;48.878;13.316;2022-09-12T16:39:35;2.20;;;2.00;;
21587;SDS011;10956;48.878;13.316;2022-09-12T16:42:00;1.90;;;1.80;;
21587;SDS011;10956;48.878;13.316;2022-09-12T16:44:26;1.87;;;1.77;;
21587;SDS011;10956;48.878;13.316;2022-09-12T16:46:52;1.97;;;1.87;;
21587;SDS011;10956;48.878;13.316;2022-09-12T16:49:18;2.30;;;2.10;;
21587;SDS011;10956;48.878;13.316;2022-09-12T16:51:43;2.27;;;2.10;;
21587;SDS011;10956;48.878;13.316;2022-09-12T16:54:11;2.07;;;1.97;;
21587;SDS011;10956;48.878;13.316;2022-09-12T16:56:41;2.13;;;1.90;;
21587;SDS011;10956;48.878;13.316;2022-09-12T16:59:07;2.40;;;2.20;;
21587;SDS011;10956;48.878;13.316;2022-09-12T17:01:38;2.43;;;2.23;;
21587;SDS011;10956;48.878;13.316;2022-09-12T17:04:03;1.97;;;1.87;;
21587;SDS011;10956;48.878;13.316;2022-09-12T17:06:29;2.17;;;2.00;;
21587;SDS011;10956;48.878;13.316;2022-09-12T17:08:57;1.93;;;1.80;;
21587;SDS011;10956;48.878;13.316;2022-09-12T17:11:25;2.07;;;1.97;;
21587;SDS011;10956;48.878;13.316;2022-09-12T17:13:56;1.90;;;1.80;;
21587;SDS011;10956;48.878;13.316;2022-09-12T17:16:23;2.50;;;2.30;;
21587;SDS011;10956;48.878;13.316;2022-09-12T17:18:50;3.10;;;2.90;;
21587;SDS011;10956;48.878;13.316;2022-09-12T17:21:17;2.70;;;2.50;;
21587;SDS011;10956;48.878;13.316;2022-09-12T17:23:42;2.73;;;2.53;;
21587;SDS011;10956;48.878;13.316;2022-09-12T17:26:08;2.50;;;2.30;;
21587;SDS011;10956;48.878;13.316;2022-09-12T17:28:35;2.60;;;2.40;;